sensor_id;sensor_type;location;lat;lon;timestamp;P1;P2;P0
57563;PMS7003;43400;45.926;6.724;2023-02-11T00:02:30;50.80;44.80;29.80
57563;PMS7003;43400;45.926;6.724;2023-02-11T00:05:02;47.50;43.00;29.00
57563;PMS7003;43400;45.926;6.724;2023-02-11T00:07:35;48.00;44.00;27.60
57563;PMS7003;43400;45.926;6.724;2023-02-11T00:10:07;50.25;47.00;32.00
57563;PMS7003;43400;45.926;6.724;2023-02-11T00:12:39;56.00;49.00;31.00
57563;PMS7003;43400;45.926;6.724;2023-02-11T00:15:11;55.00;49.00;31.75
57563;PMS7003;43400;45.926;6.724;2023-02-11T00:17:43;46.40;44.00;28.80
57563;PMS7003;43400;45.926;6.724;2023-02-11T00:20:16;59.00;49.00;31.75
57563;PMS7003;43400;45.926;6.724;2023-02-11T00:22:48;49.75;46.50;31.50
57563;PMS7003;43400;45.926;6.724;2023-02-11T00:25:21;48.60;46.00;32.00
57563;PMS7003;43400;45.926;6.724;2023-02-11T00:27:53;50.40;47.00;30.20
57563;PMS7003;43400;45.926;6.724;2023-02-11T00:30:24;56.80;49.40;32.00
57563;PMS7003;43400;45.926;6.724;2023-02-11T00:32:57;52.80;48.60;34.00
57563;PMS7003;43400;45.926;6.724;2023-02-11T00:35:29;56.00;49.20;32.40
57563;PMS7003;43400;45.926;6.724;2023-02-11T00:38:02;62.25;52.75;32.00
57563;PMS7003;43400;45.926;6.724;2023-02-11T00:40:33;67.00;54.80;35.40
57563;PMS7003;43400;45.926;6.724;2023-02-11T00:43:05;56.00;49.00;32.40
57563;PMS7003;43400;45.926;6.724;2023-02-11T00:45:37;59.60;52.80;34.40
57563;PMS7003;43400;45.926;6.724;2023-02-11T00:48:09;67.00;56.80;35.40
57563;PMS7003;43400;45.926;6.724;2023-02-11T00:50:41;54.00;48.80;33.60
57563;PMS7003;43400;45.926;6.724;2023-02-11T00:53:13;66.25;55.75;36.00
57563;PMS7003;43400;45.926;6.724;2023-02-11T00:55:45;67.00;53.60;34.40
57563;PMS7003;43400;45.926;6.724;2023-02-11T00:58:17;66.33;55.00;34.00
57563;PMS7003;43400;45.926;6.724;2023-02-11T01:00:50;69.25;57.50;36.75
57563;PMS7003;43400;45.926;6.724;2023-02-11T01:03:24;69.00;56.00;35.75
57563;PMS7003;43400;45.926;6.724;2023-02-11T01:05:56;60.40;54.00;34.40
57563;PMS7003;43400;45.926;6.724;2023-02-11T01:08:29;55.25;49.00;33.00
57563;PMS7003;43400;45.926;6.724;2023-02-11T01:11:03;54.75;48.75;33.25
57563;PMS7003;43400;45.926;6.724;2023-02-11T01:13:37;50.40;44.20;30.20
57563;PMS7003;43400;45.926;6.724;2023-02-11T01:16:10;51.25;47.50;30.00
57563;PMS7003;43400;45.926;6.724;2023-02-11T01:18:42;55.50;46.50;30.00
57563;PMS7003;43400;45.926;6.724;2023-02-11T01:21:14;52.25;48.00;30.00
57563;PMS7003;43400;45.926;6.724;2023-02-11T01:23:45;52.40;48.00;31.40
57563;PMS7003;43400;45.926;6.724;2023-02-11T01:26:17;55.00;48.00;30.00
57563;PMS7003;43400;45.926;6.724;2023-02-11T01:28:50;39.00;39.00;27.00
57563;PMS7003;43400;45.926;6.724;2023-02-11T01:31:22;41.33;39.67;28.00
57563;PMS7003;43400;45.926;6.724;2023-02-11T01:33:54;40.75;39.50;26.00
57563;PMS7003;43400;45.926;6.724;2023-02-11T01:36:27;48.75;44.50;29.50
57563;PMS7003;43400;45.926;6.724;2023-02-11T01:39:00;44.40;40.00;27.40
57563;PMS7003;43400;45.926;6.724;2023-02-11T01:41:32;55.25;48.75;31.00
57563;PMS7003;43400;45.926;6.724;2023-02-11T01:47:08;49.00;45.00;30.00
57563;PMS7003;43400;45.926;6.724;2023-02-11T01:49:48;43.25;37.75;26.50
57563;PMS7003;43400;45.926;6.724;2023-02-11T01:55:02;31.00;30.50;22.00
57563;PMS7003;43400;45.926;6.724;2023-02-11T01:57:37;36.00;36.00;24.00
57563;PMS7003;43400;45.926;6.724;2023-02-11T02:02:57;35.50;33.75;22.50
57563;PMS7003;43400;45.926;6.724;2023-02-11T02:05:47;40.00;37.00;28.50
57563;PMS7003;43400;45.926;6.724;2023-02-11T02:08:35;36.00;34.50;24.00
57563;PMS7003;43400;45.926;6.724;2023-02-11T02:11:13;36.80;33.00;21.00
57563;PMS7003;43400;45.926;6.724;2023-02-11T02:13:45;33.25;31.50;21.75
57563;PMS7003;43400;45.926;6.724;2023-02-11T02:16:17;70.00;58.00;39.00
57563;PMS7003;43400;45.926;6.724;2023-02-11T02:19:02;57.00;49.00;34.00
57563;PMS7003;43400;45.926;6.724;2023-02-11T02:25:34;60.75;52.00;33.00
57563;PMS7003;43400;45.926;6.724;2023-02-11T02:31:46;55.60;48.80;31.80
57563;PMS7003;43400;45.926;6.724;2023-02-11T02:34:35;45.40;44.60;30.00
57563;PMS7003;43400;45.926;6.724;2023-02-11T02:37:19;45.20;42.80;30.00
57563;PMS7003;43400;45.926;6.724;2023-02-11T02:39:58;46.00;42.50;30.00
57563;PMS7003;43400;45.926;6.724;2023-02-11T02:42:37;52.00;47.33;30.00
57563;PMS7003;43400;45.926;6.724;2023-02-11T02:45:10;35.50;34.00;25.00
57563;PMS7003;43400;45.926;6.724;2023-02-11T02:47:43;40.00;38.50;24.50
57563;PMS7003;43400;45.926;6.724;2023-02-11T02:50:16;45.75;36.75;24.00
57563;PMS7003;43400;45.926;6.724;2023-02-11T03:04:13;31.00;29.40;21.00
57563;PMS7003;43400;45.926;6.724;2023-02-11T03:10:37;28.00;28.00;22.00
57563;PMS7003;43400;45.926;6.724;2023-02-11T03:13:16;44.40;42.60;30.00
57563;PMS7003;43400;45.926;6.724;2023-02-11T03:15:51;40.00;36.33;24.33
57563;PMS7003;43400;45.926;6.724;2023-02-11T03:18:26;39.25;36.00;24.00
57563;PMS7003;43400;45.926;6.724;2023-02-11T03:21:00;40.40;34.00;21.80
57563;PMS7003;43400;45.926;6.724;2023-02-11T03:23:36;35.40;32.40;21.20
57563;PMS7003;43400;45.926;6.724;2023-02-11T03:26:42;36.20;35.20;22.40
57563;PMS7003;43400;45.926;6.724;2023-02-11T03:31:55;47.75;40.75;27.00
57563;PMS7003;43400;45.926;6.724;2023-02-11T03:34:39;67.80;53.60;36.00
57563;PMS7003;43400;45.926;6.724;2023-02-11T03:37:39;67.80;57.20;36.80
57563;PMS7003;43400;45.926;6.724;2023-02-11T03:40:22;47.80;45.00;33.00
57563;PMS7003;43400;45.926;6.724;2023-02-11T03:43:02;47.40;46.00;28.80
57563;PMS7003;43400;45.926;6.724;2023-02-11T03:45:41;47.60;45.40;30.40
57563;PMS7003;43400;45.926;6.724;2023-02-11T03:48:18;55.75;46.50;33.00
57563;PMS7003;43400;45.926;6.724;2023-02-11T03:51:01;76.00;63.25;42.00
57563;PMS7003;43400;45.926;6.724;2023-02-11T03:53:37;59.00;51.40;34.00
57563;PMS7003;43400;45.926;6.724;2023-02-11T03:56:16;43.00;42.00;27.00
57563;PMS7003;43400;45.926;6.724;2023-02-11T03:58:53;37.00;36.00;24.80
57563;PMS7003;43400;45.926;6.724;2023-02-11T04:01:25;35.40;34.00;22.40
57563;PMS7003;43400;45.926;6.724;2023-02-11T04:03:57;32.50;30.75;21.00
57563;PMS7003;43400;45.926;6.724;2023-02-11T04:06:29;48.60;45.00;30.00
57563;PMS7003;43400;45.926;6.724;2023-02-11T04:09:00;52.00;47.00;29.50
57563;PMS7003;43400;45.926;6.724;2023-02-11T04:11:32;43.40;41.60;28.40
57563;PMS7003;43400;45.926;6.724;2023-02-11T04:14:04;44.40;41.20;29.20
57563;PMS7003;43400;45.926;6.724;2023-02-11T04:16:35;66.25;54.25;35.00
57563;PMS7003;43400;45.926;6.724;2023-02-11T04:19:07;55.20;48.80;32.60
57563;PMS7003;43400;45.926;6.724;2023-02-11T04:21:39;48.20;45.20;30.00
57563;PMS7003;43400;45.926;6.724;2023-02-11T04:24:10;48.00;45.20;30.00
57563;PMS7003;43400;45.926;6.724;2023-02-11T04:26:42;51.00;45.00;30.00
57563;PMS7003;43400;45.926;6.724;2023-02-11T04:29:14;45.75;44.00;29.50
57563;PMS7003;43400;45.926;6.724;2023-02-11T04:31:46;48.50;44.50;30.50
57563;PMS7003;43400;45.926;6.724;2023-02-11T04:34:18;52.40;46.40;30.00
57563;PMS7003;43400;45.926;6.724;2023-02-11T04:36:50;50.75;45.25;28.00
57563;PMS7003;43400;45.926;6.724;2023-02-11T04:39:22;47.75;45.00;27.25
57563;PMS7003;43400;45.926;6.724;2023-02-11T04:41:54;42.40;41.60;28.80
57563;PMS7003;43400;45.926;6.724;2023-02-11T04:44:26;42.80;41.60;27.60
57563;PMS7003;43400;45.926;6.724;2023-02-11T04:46:58;36.25;35.50;27.00
57563;PMS7003;43400;45.926;6.724;2023-02-11T04:49:30;41.20;38.40;27.00
57563;PMS7003;43400;45.926;6.724;2023-02-11T04:52:01;39.00;36.20;20.60
57563;PMS7003;43400;45.926;6.724;2023-02-11T04:54:33;35.00;33.80;21.20
57563;PMS7003;43400;45.926;6.724;2023-02-11T04:57:05;28.40;25.20;20.60
57563;PMS7003;43400;45.926;6.724;2023-02-11T04:59:37;30.40;27.40;16.80
57563;PMS7003;43400;45.926;6.724;2023-02-11T05:02:10;25.00;25.00;18.00
57563;PMS7003;43400;45.926;6.724;2023-02-11T05:04:42;24.75;24.75;16.50
57563;PMS7003;43400;45.926;6.724;2023-02-11T05:07:13;19.00;19.00;14.00
57563;PMS7003;43400;45.926;6.724;2023-02-11T05:09:45;25.40;24.60;16.00
57563;PMS7003;43400;45.926;6.724;2023-02-11T05:12:17;25.80;24.00;16.00
57563;PMS7003;43400;45.926;6.724;2023-02-11T05:14:49;25.80;25.80;16.80
57563;PMS7003;43400;45.926;6.724;2023-02-11T05:17:21;39.67;36.67;25.00
57563;PMS7003;43400;45.926;6.724;2023-02-11T05:19:53;49.00;44.20;30.00
57563;PMS7003;43400;45.926;6.724;2023-02-11T05:22:24;46.80;44.60;30.00
57563;PMS7003;43400;45.926;6.724;2023-02-11T05:24:56;44.50;43.75;30.00
57563;PMS7003;43400;45.926;6.724;2023-02-11T05:27:28;34.75;32.75;22.00
57563;PMS7003;43400;45.926;6.724;2023-02-11T05:30:00;39.50;39.25;26.00
57563;PMS7003;43400;45.926;6.724;2023-02-11T05:32:32;36.20;36.20;25.00
57563;PMS7003;43400;45.926;6.724;2023-02-11T05:35:03;30.75;29.50;21.75
57563;PMS7003;43400;45.926;6.724;2023-02-11T05:37:35;27.00;25.00;18.75
57563;PMS7003;43400;45.926;6.724;2023-02-11T05:40:07;24.80;23.80;18.00
57563;PMS7003;43400;45.926;6.724;2023-02-11T05:42:41;25.40;21.80;16.00
57563;PMS7003;43400;45.926;6.724;2023-02-11T05:45:12;18.00;16.50;13.00
57563;PMS7003;43400;45.926;6.724;2023-02-11T05:47:44;25.80;24.20;18.00
57563;PMS7003;43400;45.926;6.724;2023-02-11T05:50:16;36.25;28.50;18.00
57563;PMS7003;43400;45.926;6.724;2023-02-11T05:52:48;27.80;26.60;20.60
57563;PMS7003;43400;45.926;6.724;2023-02-11T05:55:19;37.00;36.00;23.50
57563;PMS7003;43400;45.926;6.724;2023-02-11T05:57:51;40.00;33.00;22.50
57563;PMS7003;43400;45.926;6.724;2023-02-11T06:00:23;38.00;34.00;22.00
57563;PMS7003;43400;45.926;6.724;2023-02-11T06:02:55;32.50;28.50;20.50
57563;PMS7003;43400;45.926;6.724;2023-02-11T06:05:27;24.60;22.00;15.00
57563;PMS7003;43400;45.926;6.724;2023-02-11T06:07:59;21.75;20.00;16.00
57563;PMS7003;43400;45.926;6.724;2023-02-11T06:10:30;24.00;21.80;18.00
57563;PMS7003;43400;45.926;6.724;2023-02-11T06:13:02;28.00;24.25;17.00
57563;PMS7003;43400;45.926;6.724;2023-02-11T06:15:34;22.00;21.00;15.00
57563;PMS7003;43400;45.926;6.724;2023-02-11T06:18:06;25.20;24.00;18.80
57563;PMS7003;43400;45.926;6.724;2023-02-11T06:20:37;30.25;30.00;21.00
57563;PMS7003;43400;45.926;6.724;2023-02-11T06:23:09;26.75;26.50;18.00
57563;PMS7003;43400;45.926;6.724;2023-02-11T06:25:41;26.25;24.75;18.75
57563;PMS7003;43400;45.926;6.724;2023-02-11T06:28:13;27.75;26.50;18.00
57563;PMS7003;43400;45.926;6.724;2023-02-11T06:30:45;32.50;30.25;18.75
57563;PMS7003;43400;45.926;6.724;2023-02-11T06:33:17;31.80;31.80;23.60
57563;PMS7003;43400;45.926;6.724;2023-02-11T06:35:48;27.80;27.00;19.00
57563;PMS7003;43400;45.926;6.724;2023-02-11T06:38:20;33.00;30.00;19.00
57563;PMS7003;43400;45.926;6.724;2023-02-11T06:40:52;33.00;29.50;20.00
57563;PMS7003;43400;45.926;6.724;2023-02-11T06:43:24;31.25;28.25;18.50
57563;PMS7003;43400;45.926;6.724;2023-02-11T06:45:55;30.20;28.40;16.80
57563;PMS7003;43400;45.926;6.724;2023-02-11T06:48:27;34.00;27.00;19.00
57563;PMS7003;43400;45.926;6.724;2023-02-11T06:51:03;25.00;24.00;17.50
57563;PMS7003;43400;45.926;6.724;2023-02-11T06:53:37;38.50;36.50;26.00
57563;PMS7003;43400;45.926;6.724;2023-02-11T06:56:12;23.00;21.50;15.50
57563;PMS7003;43400;45.926;6.724;2023-02-11T06:58:46;25.20;24.40;18.00
57563;PMS7003;43400;45.926;6.724;2023-02-11T07:01:18;29.50;27.00;19.00
57563;PMS7003;43400;45.926;6.724;2023-02-11T07:03:51;32.00;30.75;21.00
57563;PMS7003;43400;45.926;6.724;2023-02-11T07:06:25;26.60;25.40;20.20
57563;PMS7003;43400;45.926;6.724;2023-02-11T07:08:57;35.20;33.00;22.00
57563;PMS7003;43400;45.926;6.724;2023-02-11T07:11:29;31.75;30.25;22.00
57563;PMS7003;43400;45.926;6.724;2023-02-11T07:14:02;82.50;66.75;43.00
57563;PMS7003;43400;45.926;6.724;2023-02-11T07:16:36;46.80;44.20;28.00
57563;PMS7003;43400;45.926;6.724;2023-02-11T07:19:08;55.25;48.75;34.00
57563;PMS7003;43400;45.926;6.724;2023-02-11T07:21:40;48.60;46.40;31.00
57563;PMS7003;43400;45.926;6.724;2023-02-11T07:24:12;47.33;45.33;31.00
57563;PMS7003;43400;45.926;6.724;2023-02-11T07:26:44;48.20;44.20;29.20
57563;PMS7003;43400;45.926;6.724;2023-02-11T07:29:16;47.50;43.25;30.00
57563;PMS7003;43400;45.926;6.724;2023-02-11T07:31:48;42.60;41.20;30.00
57563;PMS7003;43400;45.926;6.724;2023-02-11T07:34:19;52.00;48.00;32.20
57563;PMS7003;43400;45.926;6.724;2023-02-11T07:36:51;45.75;43.00;29.50
57563;PMS7003;43400;45.926;6.724;2023-02-11T07:39:23;45.40;42.80;27.00
57563;PMS7003;43400;45.926;6.724;2023-02-11T07:41:55;50.40;45.00;30.40
57563;PMS7003;43400;45.926;6.724;2023-02-11T07:44:27;58.00;50.00;31.50
57563;PMS7003;43400;45.926;6.724;2023-02-11T07:46:59;53.50;45.75;30.00
57563;PMS7003;43400;45.926;6.724;2023-02-11T07:49:31;53.00;48.00;33.00
57563;PMS7003;43400;45.926;6.724;2023-02-11T07:52:03;52.50;48.25;31.00
57563;PMS7003;43400;45.926;6.724;2023-02-11T07:54:35;48.20;45.00;30.20
57563;PMS7003;43400;45.926;6.724;2023-02-11T07:57:07;40.75;38.75;26.50
57563;PMS7003;43400;45.926;6.724;2023-02-11T07:59:38;55.50;48.75;30.00
57563;PMS7003;43400;45.926;6.724;2023-02-11T08:02:10;48.00;45.00;28.25
57563;PMS7003;43400;45.926;6.724;2023-02-11T08:04:44;45.80;45.00;28.00
57563;PMS7003;43400;45.926;6.724;2023-02-11T08:07:17;34.00;33.75;25.00
57563;PMS7003;43400;45.926;6.724;2023-02-11T08:09:49;33.60;32.20;24.00
57563;PMS7003;43400;45.926;6.724;2023-02-11T08:12:21;37.00;33.67;24.00
57563;PMS7003;43400;45.926;6.724;2023-02-11T08:14:53;36.00;36.00;21.00
57563;PMS7003;43400;45.926;6.724;2023-02-11T08:17:24;38.60;36.80;26.60
57563;PMS7003;43400;45.926;6.724;2023-02-11T08:19:56;34.60;31.80;23.60
57563;PMS7003;43400;45.926;6.724;2023-02-11T08:22:30;43.40;40.20;28.40
57563;PMS7003;43400;45.926;6.724;2023-02-11T08:25:02;51.50;48.00;33.00
57563;PMS7003;43400;45.926;6.724;2023-02-11T08:27:33;63.00;49.75;33.00
57563;PMS7003;43400;45.926;6.724;2023-02-11T08:30:05;58.00;49.00;31.50
57563;PMS7003;43400;45.926;6.724;2023-02-11T08:32:37;58.50;50.00;33.00
57563;PMS7003;43400;45.926;6.724;2023-02-11T08:35:09;62.75;49.00;32.50
57563;PMS7003;43400;45.926;6.724;2023-02-11T08:37:40;67.60;52.00;33.60
57563;PMS7003;43400;45.926;6.724;2023-02-11T08:40:12;65.50;54.00;34.00
57563;PMS7003;43400;45.926;6.724;2023-02-11T08:42:44;64.60;54.00;35.20
57563;PMS7003;43400;45.926;6.724;2023-02-11T08:45:16;63.00;52.50;36.00
57563;PMS7003;43400;45.926;6.724;2023-02-11T08:47:47;58.00;50.50;34.00
57563;PMS7003;43400;45.926;6.724;2023-02-11T08:50:19;50.50;47.50;29.00
57563;PMS7003;43400;45.926;6.724;2023-02-11T08:52:51;48.00;45.00;30.67
57563;PMS7003;43400;45.926;6.724;2023-02-11T08:55:23;41.80;40.20;27.20
57563;PMS7003;43400;45.926;6.724;2023-02-11T08:57:54;46.00;40.00;30.00
57563;PMS7003;43400;45.926;6.724;2023-02-11T09:00:26;49.50;48.00;30.00
57563;PMS7003;43400;45.926;6.724;2023-02-11T09:02:58;53.00;48.25;31.25
57563;PMS7003;43400;45.926;6.724;2023-02-11T09:05:30;56.25;49.00;33.00
57563;PMS7003;43400;45.926;6.724;2023-02-11T09:08:02;67.25;52.50;33.50
57563;PMS7003;43400;45.926;6.724;2023-02-11T09:10:34;66.25;55.50;36.00
57563;PMS7003;43400;45.926;6.724;2023-02-11T09:13:07;69.00;57.00;39.00
57563;PMS7003;43400;45.926;6.724;2023-02-11T09:15:39;75.80;60.20;39.00
57563;PMS7003;43400;45.926;6.724;2023-02-11T09:18:10;71.80;57.60;38.60
57563;PMS7003;43400;45.926;6.724;2023-02-11T09:20:42;75.75;62.50;40.00
57563;PMS7003;43400;45.926;6.724;2023-02-11T09:23:14;66.80;56.60;37.80
57563;PMS7003;43400;45.926;6.724;2023-02-11T09:25:46;71.50;56.75;35.75
57563;PMS7003;43400;45.926;6.724;2023-02-11T09:28:17;63.50;52.00;33.50
57563;PMS7003;43400;45.926;6.724;2023-02-11T09:30:49;57.00;49.00;32.50
57563;PMS7003;43400;45.926;6.724;2023-02-11T09:33:21;58.67;49.00;30.67
57563;PMS7003;43400;45.926;6.724;2023-02-11T09:35:52;52.75;48.50;31.25
57563;PMS7003;43400;45.926;6.724;2023-02-11T09:38:24;46.25;43.75;28.00
57563;PMS7003;43400;45.926;6.724;2023-02-11T09:40:56;45.20;41.00;29.00
57563;PMS7003;43400;45.926;6.724;2023-02-11T09:43:40;48.50;42.50;27.00
57563;PMS7003;43400;45.926;6.724;2023-02-11T09:46:17;39.00;37.50;27.00
57563;PMS7003;43400;45.926;6.724;2023-02-11T09:48:51;48.50;45.75;28.50
57563;PMS7003;43400;45.926;6.724;2023-02-11T09:51:32;51.50;45.75;31.00
57563;PMS7003;43400;45.926;6.724;2023-02-11T09:54:35;48.75;43.50;27.50
57563;PMS7003;43400;45.926;6.724;2023-02-11T09:57:07;33.00;32.50;24.00
57563;PMS7003;43400;45.926;6.724;2023-02-11T09:59:40;33.25;31.50;24.25
57563;PMS7003;43400;45.926;6.724;2023-02-11T10:02:17;24.00;22.00;17.00
57563;PMS7003;43400;45.926;6.724;2023-02-11T10:05:18;22.00;20.40;16.20
57563;PMS7003;43400;45.926;6.724;2023-02-11T10:08:10;27.20;21.60;16.40
57563;PMS7003;43400;45.926;6.724;2023-02-11T10:22:02;18.60;17.00;13.00
57563;PMS7003;43400;45.926;6.724;2023-02-11T10:24:42;14.50;14.50;10.00
57563;PMS7003;43400;45.926;6.724;2023-02-11T10:27:25;12.00;12.00;9.00
57563;PMS7003;43400;45.926;6.724;2023-02-11T10:30:15;15.40;15.40;11.20
57563;PMS7003;43400;45.926;6.724;2023-02-11T10:35:41;16.40;15.20;12.00
57563;PMS7003;43400;45.926;6.724;2023-02-11T10:38:13;15.20;15.20;11.40
57563;PMS7003;43400;45.926;6.724;2023-02-11T10:40:45;13.50;13.00;9.75
57563;PMS7003;43400;45.926;6.724;2023-02-11T10:43:17;13.50;13.25;10.25
57563;PMS7003;43400;45.926;6.724;2023-02-11T10:45:54;11.25;11.25;9.75
57563;PMS7003;43400;45.926;6.724;2023-02-11T10:56:35;14.00;14.00;11.50
57563;PMS7003;43400;45.926;6.724;2023-02-11T11:02:18;11.00;11.00;9.00
57563;PMS7003;43400;45.926;6.724;2023-02-11T11:04:58;8.40;7.80;7.00
57563;PMS7003;43400;45.926;6.724;2023-02-11T11:07:36;11.00;9.00;7.00
57563;PMS7003;43400;45.926;6.724;2023-02-11T11:10:27;16.00;16.00;13.50
57563;PMS7003;43400;45.926;6.724;2023-02-11T11:13:24;10.25;9.25;8.25
57563;PMS7003;43400;45.926;6.724;2023-02-11T11:24:47;11.25;10.75;8.75
57563;PMS7003;43400;45.926;6.724;2023-02-11T11:27:17;12.80;12.80;11.60
57563;PMS7003;43400;45.926;6.724;2023-02-11T11:29:56;13.67;13.00;10.00
57563;PMS7003;43400;45.926;6.724;2023-02-11T11:32:29;9.00;9.00;8.00
57563;PMS7003;43400;45.926;6.724;2023-02-11T11:35:03;8.60;8.60;8.00
57563;PMS7003;43400;45.926;6.724;2023-02-11T11:37:51;12.20;11.80;10.00
57563;PMS7003;43400;45.926;6.724;2023-02-11T11:40:29;10.00;10.00;8.00
57563;PMS7003;43400;45.926;6.724;2023-02-11T11:43:04;8.20;7.00;6.80
57563;PMS7003;43400;45.926;6.724;2023-02-11T11:45:57;8.60;8.00;6.60
57563;PMS7003;43400;45.926;6.724;2023-02-11T11:51:07;12.00;11.00;8.00
57563;PMS7003;43400;45.926;6.724;2023-02-11T11:53:47;12.00;11.50;9.50
57563;PMS7003;43400;45.926;6.724;2023-02-11T11:56:27;10.75;9.75;7.75
57563;PMS7003;43400;45.926;6.724;2023-02-11T11:59:10;11.00;11.00;9.25
57563;PMS7003;43400;45.926;6.724;2023-02-11T12:01:50;10.00;9.25;8.25
57563;PMS7003;43400;45.926;6.724;2023-02-11T12:10:16;7.80;7.00;6.00
57563;PMS7003;43400;45.926;6.724;2023-02-11T12:13:22;8.20;8.20;6.60
57563;PMS7003;43400;45.926;6.724;2023-02-11T12:22:10;10.25;9.75;8.00
57563;PMS7003;43400;45.926;6.724;2023-02-11T12:24:55;11.40;10.20;7.40
57563;PMS7003;43400;45.926;6.724;2023-02-11T12:27:46;8.75;7.75;6.75
57563;PMS7003;43400;45.926;6.724;2023-02-11T12:50:47;13.20;11.40;9.00
57563;PMS7003;43400;45.926;6.724;2023-02-11T12:59:37;15.00;15.00;12.00
57563;PMS7003;43400;45.926;6.724;2023-02-11T13:02:33;14.00;13.75;9.50
57563;PMS7003;43400;45.926;6.724;2023-02-11T13:08:18;11.80;11.80;9.60
57563;PMS7003;43400;45.926;6.724;2023-02-11T13:11:06;12.00;11.20;9.00
57563;PMS7003;43400;45.926;6.724;2023-02-11T13:13:58;12.75;12.25;10.00
57563;PMS7003;43400;45.926;6.724;2023-02-11T13:16:39;11.00;10.75;9.75
57563;PMS7003;43400;45.926;6.724;2023-02-11T13:24:55;11.00;11.00;8.00
57563;PMS7003;43400;45.926;6.724;2023-02-11T13:27:35;11.00;11.00;9.00
57563;PMS7003;43400;45.926;6.724;2023-02-11T13:38:02;9.25;9.25;7.00
57563;PMS7003;43400;45.926;6.724;2023-02-11T13:40:37;8.00;8.00;7.33
57563;PMS7003;43400;45.926;6.724;2023-02-11T13:43:20;6.60;6.60;5.00
57563;PMS7003;43400;45.926;6.724;2023-02-11T13:46:02;8.40;8.40;7.00
57563;PMS7003;43400;45.926;6.724;2023-02-11T13:51:31;10.00;9.40;7.40
57563;PMS7003;43400;45.926;6.724;2023-02-11T13:54:07;9.20;8.60;7.20
57563;PMS7003;43400;45.926;6.724;2023-02-11T13:57:20;7.80;7.80;6.60
57563;PMS7003;43400;45.926;6.724;2023-02-11T13:59:54;9.00;9.00;7.00
57563;PMS7003;43400;45.926;6.724;2023-02-11T14:21:34;10.00;10.00;8.00
57563;PMS7003;43400;45.926;6.724;2023-02-11T14:35:09;12.00;11.00;8.00
57563;PMS7003;43400;45.926;6.724;2023-02-11T14:41:00;10.00;10.00;8.00
57563;PMS7003;43400;45.926;6.724;2023-02-11T14:43:53;14.00;14.00;10.00
57563;PMS7003;43400;45.926;6.724;2023-02-11T14:46:28;10.75;10.75;8.00
57563;PMS7003;43400;45.926;6.724;2023-02-11T14:49:00;10.80;10.80;8.00
57563;PMS7003;43400;45.926;6.724;2023-02-11T14:51:37;11.50;11.50;9.50
57563;PMS7003;43400;45.926;6.724;2023-02-11T14:54:19;11.00;11.00;8.25
57563;PMS7003;43400;45.926;6.724;2023-02-11T14:57:07;15.80;15.20;11.00
57563;PMS7003;43400;45.926;6.724;2023-02-11T14:59:57;11.75;11.00;8.25
57563;PMS7003;43400;45.926;6.724;2023-02-11T15:02:34;12.80;12.60;10.60
57563;PMS7003;43400;45.926;6.724;2023-02-11T15:07:58;10.50;10.00;8.00
57563;PMS7003;43400;45.926;6.724;2023-02-11T15:10:33;11.75;11.25;9.25
57563;PMS7003;43400;45.926;6.724;2023-02-11T15:13:17;11.80;11.00;9.00
57563;PMS7003;43400;45.926;6.724;2023-02-11T15:15:56;13.80;12.20;9.00
57563;PMS7003;43400;45.926;6.724;2023-02-11T15:18:38;13.50;13.50;10.00
57563;PMS7003;43400;45.926;6.724;2023-02-11T15:21:12;12.00;12.00;10.00
57563;PMS7003;43400;45.926;6.724;2023-02-11T15:23:55;17.00;15.40;10.20
57563;PMS7003;43400;45.926;6.724;2023-02-11T15:29:35;11.00;11.00;8.75
57563;PMS7003;43400;45.926;6.724;2023-02-11T15:34:40;11.00;11.00;8.00
57563;PMS7003;43400;45.926;6.724;2023-02-11T15:37:33;11.00;10.25;7.00
57563;PMS7003;43400;45.926;6.724;2023-02-11T15:40:09;10.00;10.00;8.25
57563;PMS7003;43400;45.926;6.724;2023-02-11T15:42:52;12.00;11.40;9.60
57563;PMS7003;43400;45.926;6.724;2023-02-11T15:45:30;11.75;11.00;9.00
57563;PMS7003;43400;45.926;6.724;2023-02-11T15:48:15;13.00;13.00;10.00
57563;PMS7003;43400;45.926;6.724;2023-02-11T15:50:56;13.80;13.80;10.00
57563;PMS7003;43400;45.926;6.724;2023-02-11T15:53:41;17.60;16.00;12.40
57563;PMS7003;43400;45.926;6.724;2023-02-11T15:58:52;14.80;14.20;12.60
57563;PMS7003;43400;45.926;6.724;2023-02-11T16:01:30;18.20;17.80;13.80
57563;PMS7003;43400;45.926;6.724;2023-02-11T16:04:04;16.75;16.75;13.75
57563;PMS7003;43400;45.926;6.724;2023-02-11T16:06:37;15.80;15.60;13.20
57563;PMS7003;43400;45.926;6.724;2023-02-11T16:17:04;17.50;15.50;12.00
57563;PMS7003;43400;45.926;6.724;2023-02-11T16:19:42;17.20;17.00;12.60
57563;PMS7003;43400;45.926;6.724;2023-02-11T16:22:22;17.25;17.25;13.00
57563;PMS7003;43400;45.926;6.724;2023-02-11T16:24:57;15.00;14.50;10.25
57563;PMS7003;43400;45.926;6.724;2023-02-11T16:27:35;17.60;17.60;11.00
57563;PMS7003;43400;45.926;6.724;2023-02-11T16:30:24;16.00;14.20;11.00
57563;PMS7003;43400;45.926;6.724;2023-02-11T16:33:10;15.20;14.60;10.80
57563;PMS7003;43400;45.926;6.724;2023-02-11T16:35:42;15.33;15.33;10.00
57563;PMS7003;43400;45.926;6.724;2023-02-11T16:38:17;14.60;14.00;12.00
57563;PMS7003;43400;45.926;6.724;2023-02-11T16:40:48;15.00;14.00;11.00
57563;PMS7003;43400;45.926;6.724;2023-02-11T16:43:20;13.75;13.75;11.50
57563;PMS7003;43400;45.926;6.724;2023-02-11T16:45:51;13.00;13.00;8.33
57563;PMS7003;43400;45.926;6.724;2023-02-11T16:48:23;13.00;13.00;12.00
57563;PMS7003;43400;45.926;6.724;2023-02-11T16:50:55;11.00;10.60;8.60
57563;PMS7003;43400;45.926;6.724;2023-02-11T16:53:27;13.40;11.40;8.00
57563;PMS7003;43400;45.926;6.724;2023-02-11T16:55:59;10.50;10.50;7.75
57563;PMS7003;43400;45.926;6.724;2023-02-11T16:58:30;13.00;12.20;8.00
57563;PMS7003;43400;45.926;6.724;2023-02-11T17:01:02;15.00;15.00;11.00
57563;PMS7003;43400;45.926;6.724;2023-02-11T17:03:34;13.00;13.00;11.00
57563;PMS7003;43400;45.926;6.724;2023-02-11T17:06:08;15.00;13.00;11.00
57563;PMS7003;43400;45.926;6.724;2023-02-11T17:08:41;14.00;11.00;8.80
57563;PMS7003;43400;45.926;6.724;2023-02-11T17:11:13;12.80;12.80;10.80
57563;PMS7003;43400;45.926;6.724;2023-02-11T17:13:45;14.00;13.00;11.00
57563;PMS7003;43400;45.926;6.724;2023-02-11T17:16:18;18.60;17.60;10.80
57563;PMS7003;43400;45.926;6.724;2023-02-11T17:18:52;15.00;15.00;11.00
57563;PMS7003;43400;45.926;6.724;2023-02-11T17:21:24;19.00;18.00;12.00
57563;PMS7003;43400;45.926;6.724;2023-02-11T17:23:55;18.20;16.40;11.00
57563;PMS7003;43400;45.926;6.724;2023-02-11T17:26:28;18.00;17.60;13.00
57563;PMS7003;43400;45.926;6.724;2023-02-11T17:28:59;16.00;16.00;13.75
57563;PMS7003;43400;45.926;6.724;2023-02-11T17:31:31;18.00;18.00;13.00
57563;PMS7003;43400;45.926;6.724;2023-02-11T17:34:04;18.00;17.00;13.00
57563;PMS7003;43400;45.926;6.724;2023-02-11T17:36:36;15.00;14.00;13.00